Time;durP1;ratioP1;P1;durP2;ratioP2;P2;SDS_P1;SDS_P2;PMS_P1;PMS_P2;Temp;Humidity;BMP_temperature;BMP_pressure;BME280_temperature;BME280_humidity;BME280_pressure;Samples;Min_cycle;Max_cycle;Signal;HPM_P1;HPM_P2
2023/04/21 00:00:57;;;;;;;2.65;2.03;;;15.60;84.30;;;;;;5053435;28;20102;-77
2023/04/21 00:03:24;;;;;;;6.03;3.08;;;15.50;84.10;;;;;;5053324;28;20091;-76
2023/04/21 00:05:50;;;;;;;2.75;2.15;;;15.60;83.90;;;;;;5053204;28;20024;-76
2023/04/21 00:08:17;;;;;;;2.88;2.30;;;15.60;83.70;;;;;;5044913;28;20029;-76
2023/04/21 00:10:43;;;;;;;4.63;2.38;;;15.60;83.70;;;;;;5052851;28;20461;-76
2023/04/21 00:13:09;;;;;;;2.83;2.20;;;15.60;83.60;;;;;;5053049;28;20064;-76
2023/04/21 00:15:35;;;;;;;2.92;2.33;;;15.60;83.60;;;;;;5053161;28;20035;-77
2023/04/21 00:18:02;;;;;;;3.35;2.22;;;15.60;83.50;;;;;;5042860;28;20041;-77
2023/04/21 00:20:29;;;;;;;5.15;2.20;;;15.60;83.50;;;;;;5052824;28;20028;-77
2023/04/21 00:22:55;;;;;;;2.67;2.05;;;15.60;83.40;;;;;;5052559;28;20029;-77
2023/04/21 00:25:22;;;;;;;3.17;2.40;;;15.60;83.60;;;;;;5053011;28;20040;-77
2023/04/21 00:27:48;;;;;;;4.32;1.95;;;15.60;83.70;;;;;;5051908;28;20033;-77
2023/04/21 00:30:13;;;;;;;2.40;2.13;;;15.60;83.60;;;;;;5052337;28;20064;-78
2023/04/21 00:32:39;;;;;;;2.10;1.85;;;15.60;83.60;;;;;;5053091;28;20039;-78
2023/04/21 00:35:05;;;;;;;3.08;1.90;;;15.50;83.60;;;;;;5053075;28;20112;-78
2023/04/21 00:37:31;;;;;;;2.45;2.25;;;15.60;83.70;;;;;;5052875;28;20047;-77
2023/04/21 00:39:57;;;;;;;2.58;1.98;;;15.50;83.70;;;;;;5038593;28;20025;-77
2023/04/21 00:42:23;;;;;;;2.33;2.10;;;15.50;84.40;;;;;;5048210;28;20021;-78
2023/04/21 00:44:50;;;;;;;3.30;2.10;;;15.50;83.90;;;;;;5052551;28;20350;-77
2023/04/21 00:47:15;;;;;;;2.58;1.98;;;15.50;83.90;;;;;;5052570;28;20029;-76
2023/04/21 00:49:41;;;;;;;2.10;1.90;;;15.50;83.90;;;;;;5048748;28;20086;-76
2023/04/21 00:52:08;;;;;;;2.55;2.15;;;15.50;84.00;;;;;;5053181;28;20028;-77
2023/04/21 00:54:37;;;;;;;3.10;2.40;;;15.50;83.90;;;;;;5052501;28;20334;-77
2023/04/21 05:45:15;;;;;;;3.83;3.38;;;15.50;86.70;;;;;;5109335;22;20077;-81
2023/04/21 05:47:40;;;;;;;4.13;3.25;;;15.40;86.60;;;;;;5015997;28;20069;-77
2023/04/21 05:50:07;;;;;;;4.25;3.05;;;15.50;86.50;;;;;;5014607;28;20018;-77
2023/04/21 05:52:34;;;;;;;4.45;3.70;;;15.50;86.20;;;;;;5034853;28;20054;-80
2023/04/21 05:55:00;;;;;;;4.95;3.28;;;15.50;86.20;;;;;;5008188;28;20128;-77
2023/04/21 05:57:25;;;;;;;4.90;3.55;;;15.60;86.10;;;;;;5036683;28;20033;-77
2023/04/21 05:59:51;;;;;;;4.68;3.60;;;15.60;85.90;;;;;;5039514;28;20033;-77
2023/04/21 06:02:17;;;;;;;4.85;3.65;;;15.60;85.90;;;;;;5003781;28;20037;-77
2023/04/21 06:04:42;;;;;;;4.90;3.88;;;15.60;85.90;;;;;;5018698;28;20477;-78
2023/04/21 06:07:11;;;;;;;5.15;3.53;;;15.70;85.90;;;;;;5015082;28;20081;-77
2023/04/21 06:09:37;;;;;;;9.20;4.13;;;15.70;85.80;;;;;;5015600;28;20026;-79
2023/04/21 06:12:04;;;;;;;4.30;3.50;;;15.80;85.90;;;;;;5015458;28;20048;-76
2023/04/21 06:14:29;;;;;;;4.70;3.92;;;15.80;85.70;;;;;;5014844;28;20116;-77
2023/04/21 06:16:55;;;;;;;5.03;3.63;;;15.80;85.60;;;;;;5004745;28;20129;-77
2023/04/21 06:19:21;;;;;;;4.65;3.90;;;15.90;85.90;;;;;;5015469;28;20089;-77
2023/04/21 06:21:46;;;;;;;5.38;4.07;;;15.90;85.60;;;;;;5025743;28;20543;-88
2023/04/21 06:24:12;;;;;;;6.25;4.00;;;15.90;85.20;;;;;;5022586;28;20026;-87
2023/04/21 06:26:37;;;;;;;5.53;3.50;;;15.90;85.20;;;;;;5018017;28;20378;-86
2023/04/21 06:29:03;;;;;;;4.38;3.42;;;16.00;85.50;;;;;;5033794;28;20060;-86
2023/04/21 06:31:29;;;;;;;5.82;3.67;;;16.00;85.50;;;;;;5023917;28;20029;-86
2023/04/21 06:33:55;;;;;;;3.08;2.78;;;16.00;85.40;;;;;;5025738;28;20069;-86
2023/04/21 06:36:21;;;;;;;5.80;3.83;;;16.10;86.30;;;;;;5025780;28;20471;-88
2023/04/21 06:38:47;;;;;;;4.57;3.60;;;16.20;85.20;;;;;;5024719;28;20030;-78
2023/04/21 06:41:13;;;;;;;7.00;3.80;;;16.20;84.90;;;;;;5014383;28;20041;-78
2023/04/21 06:43:39;;;;;;;3.80;3.40;;;16.20;85.00;;;;;;5016860;28;20097;-85
2023/04/21 06:46:05;;;;;;;5.07;3.50;;;16.20;84.90;;;;;;5033550;28;20022;-85
2023/04/21 06:48:31;;;;;;;4.90;3.47;;;16.20;84.90;;;;;;5033479;28;20071;-86
2023/04/21 06:50:57;;;;;;;4.93;3.78;;;16.20;84.90;;;;;;5034793;28;20037;-88
2023/04/21 06:53:24;;;;;;;5.32;3.63;;;16.20;84.70;;;;;;5033381;28;20143;-87
2023/04/21 06:55:51;;;;;;;4.25;3.35;;;16.20;84.50;;;;;;5032416;28;20029;-88
2023/04/21 06:58:16;;;;;;;4.38;3.60;;;16.20;83.90;;;;;;5033805;28;20051;-80
2023/04/21 07:00:42;;;;;;;5.32;3.70;;;16.30;84.20;;;;;;5034031;28;20440;-88
2023/04/21 07:03:08;;;;;;;4.95;3.95;;;16.30;84.10;;;;;;5032244;28;20457;-80
2023/04/21 07:05:33;;;;;;;4.95;3.22;;;16.30;83.90;;;;;;5033671;28;20109;-80
2023/04/21 07:07:59;;;;;;;4.00;3.30;;;16.30;83.70;;;;;;5033685;28;20485;-80
2023/04/21 07:10:25;;;;;;;5.65;3.70;;;16.40;83.80;;;;;;5033824;28;20053;-79
2023/04/21 07:12:51;;;;;;;4.38;3.15;;;16.40;83.60;;;;;;5031837;28;20397;-80
2023/04/21 07:15:17;;;;;;;5.28;3.10;;;16.40;82.90;;;;;;5022103;28;20141;-80
2023/04/21 07:17:43;;;;;;;5.18;3.33;;;16.50;82.60;;;;;;5033300;28;20037;-87
2023/04/21 07:20:09;;;;;;;3.60;2.83;;;16.50;82.80;;;;;;5034233;28;20519;-80
2023/04/21 07:22:35;;;;;;;5.65;3.38;;;16.60;83.00;;;;;;5033650;28;20022;-80
2023/04/21 07:25:05;;;;;;;3.92;3.25;;;16.60;83.00;;;;;;5033045;28;20021;-80
2023/04/21 07:27:33;;;;;;;7.97;3.72;;;16.70;83.10;;;;;;5032605;28;20026;-80
2023/04/21 07:29:59;;;;;;;6.47;3.65;;;16.70;82.90;;;;;;5024408;28;20561;-88
2023/04/21 07:32:25;;;;;;;6.82;3.65;;;16.80;82.70;;;;;;5028627;28;20121;-80
2023/04/21 07:34:51;;;;;;;8.60;4.32;;;16.80;82.40;;;;;;5031734;28;20056;-80
2023/04/21 07:37:17;;;;;;;4.38;3.45;;;16.90;82.40;;;;;;5031045;28;20065;-79
2023/04/21 07:39:43;;;;;;;5.05;3.60;;;16.90;82.10;;;;;;5032131;28;20030;-88
2023/04/21 07:42:09;;;;;;;4.78;3.80;;;17.00;82.10;;;;;;5028340;28;20029;-80
2023/04/21 07:44:36;;;;;;;3.75;3.20;;;17.10;81.80;;;;;;5018792;28;20114;-87
2023/04/21 07:47:01;;;;;;;4.60;3.25;;;17.20;81.10;;;;;;5030819;28;20037;-88
2023/04/21 07:49:27;;;;;;;4.15;3.33;;;17.20;81.00;;;;;;5038193;28;20033;-80
2023/04/21 07:51:53;;;;;;;4.80;3.65;;;17.30;81.10;;;;;;5032980;28;20037;-89
2023/04/21 07:54:18;;;;;;;5.97;4.15;;;17.30;80.70;;;;;;5030446;28;20432;-79
2023/04/21 07:56:45;;;;;;;3.78;3.25;;;17.40;80.00;;;;;;5036385;28;20032;-86
2023/04/21 07:59:10;;;;;;;4.35;3.75;;;17.40;80.20;;;;;;5038958;28;20143;-80
2023/04/21 08:01:37;;;;;;;6.68;3.80;;;17.40;80.00;;;;;;5045122;28;20484;-88
2023/04/21 08:04:03;;;;;;;7.22;4.68;;;17.50;80.00;;;;;;5032829;28;20033;-80
2023/04/21 08:06:28;;;;;;;5.95;4.07;;;17.50;79.50;;;;;;5035727;28;20096;-81
2023/04/21 08:08:54;;;;;;;4.40;3.28;;;17.60;79.60;;;;;;5028015;28;20120;-81
2023/04/21 08:11:21;;;;;;;4.80;3.47;;;17.60;79.60;;;;;;5030668;28;20033;-87
2023/04/21 08:13:47;;;;;;;5.55;3.70;;;17.70;79.10;;;;;;5031655;28;20041;-80
2023/04/21 08:16:13;;;;;;;7.50;3.40;;;17.70;78.90;;;;;;5028686;28;20065;-80
2023/04/21 08:18:38;;;;;;;12.48;5.13;;;17.70;79.30;;;;;;5028797;28;20114;-89
2023/04/21 08:21:04;;;;;;;7.57;5.20;;;17.70;79.40;;;;;;5032760;28;20021;-87
2023/04/21 08:23:30;;;;;;;6.60;4.15;;;17.80;79.00;;;;;;5030233;28;20085;-80
2023/04/21 08:25:56;;;;;;;4.93;4.30;;;17.80;79.20;;;;;;5031611;28;20100;-80
2023/04/21 08:28:22;;;;;;;12.38;4.05;;;17.80;78.90;;;;;;5030802;28;20040;-80
2023/04/21 08:30:47;;;;;;;5.30;3.78;;;17.90;79.00;;;;;;5027813;28;20095;-81
2023/04/21 08:33:13;;;;;;;6.32;4.60;;;17.90;78.40;;;;;;5039945;28;20041;-81
2023/04/21 08:35:42;;;;;;;5.43;3.55;;;17.80;78.10;;;;;;5023954;28;20021;-81
2023/04/21 08:38:08;;;;;;;4.07;3.58;;;17.80;77.80;;;;;;5028434;28;20505;-80
2023/04/21 08:40:36;;;;;;;3.83;3.20;;;17.80;78.30;;;;;;5028409;28;20028;-80
2023/04/21 08:43:03;;;;;;;4.00;3.60;;;17.80;78.70;;;;;;5029109;28;20032;-81
2023/04/21 08:45:30;;;;;;;3.88;2.88;;;17.90;78.50;;;;;;5049005;28;20045;-82
2023/04/21 08:47:58;;;;;;;4.43;2.85;;;17.90;78.40;;;;;;5028400;28;20045;-88
2023/04/21 08:50:27;;;;;;;7.45;3.55;;;17.90;78.60;;;;;;5043060;28;20060;-88
2023/04/21 08:52:54;;;;;;;3.95;3.55;;;17.90;78.90;;;;;;5031993;28;20037;-88
2023/04/21 08:55:27;;;;;;;4.43;3.42;;;17.90;78.40;;;;;;5035329;28;20029;-88
2023/04/21 08:57:53;;;;;;;5.30;3.30;;;17.90;78.80;;;;;;5031658;28;20034;-88
2023/04/21 09:00:19;;;;;;;3.88;3.10;;;17.90;78.70;;;;;;5038918;28;20025;-89
2023/04/21 09:02:58;;;;;;;5.45;3.90;;;17.90;78.80;;;;;;5041896;28;20025;-89
2023/04/21 09:05:28;;;;;;;4.67;3.60;;;17.90;78.80;;;;;;5021597;28;20464;-81
2023/04/21 09:08:12;;;;;;;3.22;2.92;;;17.90;78.60;;;;;;5028884;28;20425;-81
2023/04/21 09:10:45;;;;;;;3.88;2.83;;;18.00;78.40;;;;;;5035885;28;20084;-89
2023/04/21 09:13:11;;;;;;;4.60;3.35;;;18.00;78.60;;;;;;5035097;28;20018;-88
2023/04/21 09:15:42;;;;;;;4.25;3.40;;;18.00;78.90;;;;;;5020823;28;20521;-81
2023/04/21 09:18:22;;;;;;;5.68;4.05;;;18.00;79.30;;;;;;5029715;28;20025;-80
2023/04/21 09:21:05;;;;;;;;;;;18.00;80.00;;;;;;5017863;28;20029;-80
2023/04/21 09:23:30;;;;;;;8.75;3.50;;;18.00;80.20;;;;;;5018587;28;19905;-88
2023/04/21 09:25:56;;;;;;;4.82;3.55;;;18.00;80.50;;;;;;5036008;28;20060;-89
2023/04/21 09:28:22;;;;;;;6.78;3.80;;;18.00;80.60;;;;;;5038855;28;20029;-89
2023/04/21 09:30:54;;;;;;;4.90;3.90;;;18.00;80.80;;;;;;5035703;28;20037;-88
2023/04/21 09:33:20;;;;;;;4.45;3.92;;;18.00;80.90;;;;;;5023397;28;20396;-88
2023/04/21 09:35:47;;;;;;;4.18;3.78;;;18.00;81.10;;;;;;5025974;28;20025;-87
2023/04/21 09:38:12;;;;;;;4.80;4.10;;;18.00;81.10;;;;;;5023536;28;20111;-87
2023/04/21 09:40:39;;;;;;;6.25;4.40;;;18.00;80.80;;;;;;5035628;28;20025;-88
2023/04/21 09:43:05;;;;;;;9.35;4.50;;;18.00;80.90;;;;;;5020704;28;20032;-87
2023/04/21 09:45:32;;;;;;;4.75;3.72;;;18.00;81.10;;;;;;5034354;28;20413;-88
2023/04/21 09:48:00;;;;;;;4.95;3.72;;;18.00;80.90;;;;;;5034824;28;20496;-89
2023/04/21 09:50:28;;;;;;;4.47;3.75;;;18.00;81.00;;;;;;5055144;28;20018;-89
2023/04/21 09:52:55;;;;;;;5.88;3.95;;;18.00;81.00;;;;;;5046839;28;20072;-89
2023/04/21 09:55:25;;;;;;;4.97;3.90;;;18.00;80.30;;;;;;5033514;28;20038;-81
2023/04/21 09:57:53;;;;;;;5.70;4.25;;;18.10;80.60;;;;;;5039895;28;20484;-81
2023/04/21 10:00:21;;;;;;;5.88;5.03;;;18.10;80.40;;;;;;5025580;28;20041;-90
2023/04/21 10:02:51;;;;;;;4.22;3.75;;;18.20;80.00;;;;;;5037142;28;20025;-82
2023/04/21 10:05:17;;;;;;;4.60;3.72;;;18.20;79.80;;;;;;5030390;28;20033;-82
2023/04/21 10:07:44;;;;;;;5.72;4.10;;;18.20;79.70;;;;;;5041010;28;20531;-82
2023/04/21 10:10:25;;;;;;;5.97;3.92;;;18.30;79.80;;;;;;5040392;28;20558;-83
2023/04/21 10:12:51;;;;;;;5.22;3.78;;;18.40;79.60;;;;;;5033753;28;20057;-83
2023/04/21 10:15:38;;;;;;;3.90;3.30;;;18.50;79.80;;;;;;5035266;28;20037;-82
2023/04/21 10:18:15;;;;;;;4.47;3.17;;;18.60;79.40;;;;;;5033716;28;20029;-83
2023/04/21 10:20:50;;;;;;;5.32;4.57;;;18.60;79.00;;;;;;5037163;28;20037;-90
2023/04/21 10:23:42;;;;;;;3.65;3.15;;;18.70;78.40;;;;;;5035358;28;20022;-92
2023/04/21 10:26:16;;;;;;;5.22;3.70;;;18.80;76.10;;;;;;5036208;28;20033;-91
2023/04/21 10:29:06;;;;;;;3.58;3.28;;;18.80;77.20;;;;;;5031795;28;20099;-91
2023/04/21 10:31:36;;;;;;;4.75;3.30;;;18.90;77.90;;;;;;5026564;28;20871;-82
2023/04/21 10:34:07;;;;;;;5.00;3.90;;;19.00;77.80;;;;;;5033131;28;20386;-82
2023/04/21 10:36:45;;;;;;;4.28;3.22;;;19.00;78.20;;;;;;5030582;28;20141;-82
2023/04/21 10:39:35;;;;;;;5.00;3.42;;;19.10;78.30;;;;;;5024747;28;20044;-91
2023/04/21 10:42:19;;;;;;;3.42;3.13;;;19.20;77.30;;;;;;5025725;28;20029;-91
2023/04/21 10:44:57;;;;;;;4.78;3.55;;;19.20;76.80;;;;;;5034295;28;20152;-90
2023/04/21 10:47:35;;;;;;;4.75;3.53;;;19.30;76.30;;;;;;5018698;28;20026;-91
2023/04/21 10:50:11;;;;;;;5.32;3.60;;;19.30;76.80;;;;;;5020827;28;20017;-92
2023/04/21 10:52:36;;;;;;;5.40;3.55;;;19.40;76.70;;;;;;5035964;28;20382;-91
2023/04/21 10:55:05;;;;;;;4.18;3.53;;;19.40;75.70;;;;;;5035001;28;20026;-91
2023/04/21 10:57:33;;;;;;;3.78;3.30;;;19.50;75.00;;;;;;5033217;28;20028;-87
2023/04/21 10:59:59;;;;;;;5.10;3.30;;;19.50;75.70;;;;;;5033188;28;20500;-82
2023/04/21 11:02:26;;;;;;;11.25;3.20;;;19.70;77.40;;;;;;5014885;28;20045;-81
2023/04/21 11:04:52;;;;;;;4.78;4.28;;;20.10;77.90;;;;;;5046245;28;20032;-82
2023/04/21 11:07:21;;;;;;;4.03;3.20;;;20.50;73.50;;;;;;5052842;28;20499;-81
2023/04/21 11:09:55;;;;;;;7.38;2.95;;;20.80;75.20;;;;;;5049130;28;20032;-81
2023/04/21 11:12:21;;;;;;;5.18;3.80;;;21.10;74.10;;;;;;5032016;28;20029;-79
2023/04/21 11:14:47;;;;;;;4.93;3.72;;;21.40;71.80;;;;;;5020557;28;20022;-80
2023/04/21 11:17:15;;;;;;;3.05;2.67;;;21.60;68.80;;;;;;5041654;28;20071;-89
2023/04/21 11:19:44;;;;;;;2.45;2.22;;;21.70;70.40;;;;;;5037542;28;20461;-89
2023/04/21 11:22:09;;;;;;;4.07;2.90;;;22.00;71.00;;;;;;5030947;28;20109;-89
2023/04/21 11:24:35;;;;;;;4.82;3.28;;;22.30;70.40;;;;;;5034770;28;20018;-89
2023/04/21 11:27:01;;;;;;;32.30;12.95;;;22.50;68.40;;;;;;5036913;28;20045;-80
2023/04/21 11:29:30;;;;;;;7.80;3.78;;;22.60;67.30;;;;;;5034015;28;20079;-80
2023/04/21 11:31:57;;;;;;;32.35;12.88;;;22.50;65.80;;;;;;5020318;28;20394;-79
2023/04/21 11:34:25;;;;;;;9.10;4.20;;;22.40;66.40;;;;;;5035246;28;20108;-80
2023/04/21 11:36:52;;;;;;;5.30;3.30;;;22.60;66.80;;;;;;5033512;28;20060;-79
2023/04/21 11:39:21;;;;;;;2.95;2.55;;;22.80;66.40;;;;;;5035661;28;20053;-80
2023/04/21 11:41:48;;;;;;;5.70;3.70;;;23.00;66.00;;;;;;5036560;28;20100;-79
2023/04/21 11:44:30;;;;;;;5.35;2.95;;;23.30;65.20;;;;;;5031999;28;20056;-80
2023/04/21 11:46:56;;;;;;;3.88;2.83;;;23.80;64.80;;;;;;5029493;28;20021;-80
2023/04/21 11:49:25;;;;;;;3.38;2.67;;;24.30;64.70;;;;;;5033083;28;20036;-87
2023/04/21 11:51:50;;;;;;;3.50;2.63;;;24.60;62.30;;;;;;5046896;28;20024;-86
2023/04/21 11:54:17;;;;;;;3.60;3.08;;;25.00;62.30;;;;;;5032443;28;20021;-88
2023/04/21 11:56:46;;;;;;;3.25;2.55;;;25.30;61.40;;;;;;5033874;28;20382;-87
2023/04/21 11:59:15;;;;;;;3.38;2.53;;;25.60;60.10;;;;;;5028107;28;20025;-87
2023/04/21 12:01:42;;;;;;;;;;;25.90;58.60;;;;;;5035346;28;20041;-87
2023/04/21 12:04:16;;;;;;;3.30;2.50;;;26.10;57.20;;;;;;5031940;28;20301;-82
2023/04/21 12:06:43;;;;;;;2.65;2.45;;;26.00;58.00;;;;;;5020174;28;20468;-81
2023/04/21 12:09:16;;;;;;;3.22;2.70;;;25.90;57.60;;;;;;5031976;28;20466;-81
2023/04/21 12:11:42;;;;;;;3.90;2.90;;;26.00;56.40;;;;;;5034042;28;20477;-82
2023/04/21 12:14:08;;;;;;;2.97;2.25;;;26.10;56.10;;;;;;5035142;28;20033;-81
2023/04/21 12:16:36;;;;;;;3.35;3.00;;;26.20;56.10;;;;;;5025322;28;20065;-82
2023/04/21 12:19:02;;;;;;;4.15;3.08;;;26.50;55.50;;;;;;5035262;28;20436;-81
2023/04/21 12:21:29;;;;;;;3.45;3.15;;;26.70;54.60;;;;;;5027475;28;20033;-81
2023/04/21 12:23:55;;;;;;;3.83;2.83;;;27.00;54.40;;;;;;5013194;28;20034;-81
2023/04/21 12:26:22;;;;;;;4.05;2.78;;;26.90;54.10;;;;;;5022583;28;20096;-82
2023/04/21 12:28:49;;;;;;;5.50;3.80;;;26.70;54.50;;;;;;5031068;28;20055;-81
2023/04/21 12:31:15;;;;;;;5.22;3.08;;;26.50;54.70;;;;;;5014531;28;20029;-82
2023/04/21 12:33:40;;;;;;;8.02;3.60;;;26.60;55.40;;;;;;5023406;28;20033;-81
2023/04/21 12:36:07;;;;;;;3.67;3.28;;;26.80;55.50;;;;;;5024747;28;20029;-81
2023/04/21 12:38:32;;;;;;;5.63;3.45;;;27.10;54.40;;;;;;5012847;28;20025;-81
2023/04/21 12:40:58;;;;;;;3.45;3.08;;;27.30;53.20;;;;;;5014584;28;20086;-80
2023/04/21 12:43:24;;;;;;;3.42;3.08;;;27.50;53.10;;;;;;5006336;28;20053;-80
2023/04/21 12:45:51;;;;;;;3.35;2.95;;;27.60;53.00;;;;;;5032534;28;20505;-80
2023/04/21 12:48:18;;;;;;;4.47;3.15;;;27.60;52.00;;;;;;5028662;28;20033;-80
2023/04/21 12:50:45;;;;;;;5.80;3.38;;;27.30;51.60;;;;;;5020729;28;20504;-80
2023/04/21 12:53:11;;;;;;;4.13;3.08;;;26.80;51.90;;;;;;5027995;28;20116;-81
2023/04/21 12:55:37;;;;;;;3.47;2.83;;;26.40;52.10;;;;;;5032409;28;21200;-81
2023/04/21 12:58:03;;;;;;;3.80;2.80;;;26.10;53.00;;;;;;5031756;28;20033;-81
2023/04/21 13:00:28;;;;;;;4.22;3.05;;;25.90;53.00;;;;;;5017346;28;20030;-86
2023/04/21 13:02:54;;;;;;;4.45;3.10;;;25.60;52.70;;;;;;5013358;28;20036;-85
2023/04/21 13:05:20;;;;;;;3.55;2.83;;;25.20;53.60;;;;;;5032864;28;20025;-89
2023/04/21 13:07:46;;;;;;;4.75;3.22;;;24.90;53.90;;;;;;5027148;28;20037;-79
2023/04/21 13:10:11;;;;;;;4.68;3.42;;;24.60;54.60;;;;;;5011794;28;20068;-79
2023/04/21 13:12:37;;;;;;;4.88;3.00;;;24.60;55.10;;;;;;5032119;28;20052;-78
2023/04/21 13:15:03;;;;;;;8.05;3.38;;;24.80;55.40;;;;;;5012637;28;20026;-78
2023/04/21 13:17:29;;;;;;;3.95;3.20;;;25.00;54.80;;;;;;5013003;28;20036;-78
2023/04/21 13:19:55;;;;;;;4.75;3.00;;;25.00;54.20;;;;;;5012804;28;20029;-79
2023/04/21 13:22:21;;;;;;;4.57;3.00;;;24.80;53.90;;;;;;4995108;28;20030;-78
2023/04/21 13:24:47;;;;;;;4.20;3.10;;;24.60;54.80;;;;;;5003096;28;20482;-78
2023/04/21 13:27:13;;;;;;;3.45;3.08;;;24.60;55.00;;;;;;5032534;28;20036;-78
2023/04/21 13:29:38;;;;;;;4.20;3.17;;;24.70;55.40;;;;;;5029635;28;20038;-78
2023/04/21 13:32:06;;;;;;;5.45;3.67;;;24.70;55.10;;;;;;5036265;28;20021;-79
2023/04/21 13:34:33;;;;;;;6.20;3.95;;;24.60;54.90;;;;;;5043574;28;20025;-79
2023/04/21 13:37:00;;;;;;;5.25;2.95;;;24.50;55.10;;;;;;5039804;28;20461;-79
2023/04/21 13:39:26;;;;;;;4.78;2.75;;;24.50;55.40;;;;;;5046677;28;20025;-77
2023/04/21 13:41:52;;;;;;;5.00;3.17;;;24.40;54.90;;;;;;5029004;28;20032;-78
2023/04/21 13:44:20;;;;;;;4.55;3.78;;;24.30;55.10;;;;;;5050429;28;20056;-78
2023/04/21 13:46:45;;;;;;;5.28;3.35;;;24.20;55.50;;;;;;5037094;28;20366;-77
2023/04/21 13:49:11;;;;;;;5.00;3.20;;;24.00;55.50;;;;;;5046237;28;20032;-77
2023/04/21 13:51:37;;;;;;;5.15;3.30;;;23.80;56.10;;;;;;5027336;28;20032;-77
2023/04/21 13:54:03;;;;;;;4.53;2.90;;;23.70;55.90;;;;;;5046282;28;20473;-76
2023/04/21 13:56:28;;;;;;;4.18;3.10;;;23.50;56.50;;;;;;5040237;28;20588;-78
2023/04/21 13:58:54;;;;;;;13.10;3.67;;;23.30;56.40;;;;;;5022067;28;20027;-79
2023/04/21 14:01:20;;;;;;;5.55;2.97;;;23.20;57.00;;;;;;5041935;28;20472;-78
2023/04/21 14:03:46;;;;;;;3.75;2.85;;;23.00;56.60;;;;;;5043977;28;20030;-79
2023/04/21 14:06:11;;;;;;;7.30;2.70;;;22.90;56.80;;;;;;5055473;28;20037;-79
2023/04/21 14:08:37;;;;;;;2.90;2.38;;;22.90;57.00;;;;;;5050120;28;20041;-82
2023/04/21 14:11:03;;;;;;;3.70;2.53;;;22.80;56.70;;;;;;5047920;28;20032;-82
2023/04/21 14:13:31;;;;;;;3.45;2.80;;;22.80;57.00;;;;;;5047702;28;20060;-83
2023/04/21 14:15:57;;;;;;;3.40;2.63;;;22.80;57.40;;;;;;5039784;28;20087;-78
2023/04/21 14:18:23;;;;;;;4.05;2.90;;;22.70;57.80;;;;;;5043468;28;20022;-78
2023/04/21 14:20:49;;;;;;;4.15;2.97;;;22.60;57.60;;;;;;5031297;28;20112;-78
2023/04/21 14:23:15;;;;;;;6.38;3.78;;;22.50;57.50;;;;;;5035708;28;20032;-79
2023/04/21 14:25:41;;;;;;;5.68;2.95;;;22.50;57.70;;;;;;5034009;28;20704;-79
2023/04/21 14:28:07;;;;;;;5.78;3.60;;;22.40;57.80;;;;;;5035099;28;20477;-78
2023/04/21 14:30:36;;;;;;;3.75;2.72;;;22.40;58.20;;;;;;5039204;28;20044;-78
2023/04/21 14:33:02;;;;;;;5.40;3.05;;;22.40;58.20;;;;;;5037819;28;20037;-82
2023/04/21 14:35:29;;;;;;;4.05;3.05;;;22.40;58.40;;;;;;5022533;28;20048;-82
2023/04/21 14:37:56;;;;;;;3.22;2.42;;;22.50;58.70;;;;;;5043169;28;20081;-79
2023/04/21 14:40:22;;;;;;;3.25;2.70;;;22.50;58.30;;;;;;5054488;28;20044;-78
2023/04/21 14:42:47;;;;;;;2.63;1.77;;;22.50;58.10;;;;;;5021253;28;20039;-76
2023/04/21 14:45:13;;;;;;;2.10;1.20;;;22.50;57.60;;;;;;5046916;28;20489;-77
2023/04/21 14:47:39;;;;;;;1.02;0.90;;;22.50;56.20;;;;;;5036175;28;20504;-77
2023/04/21 14:50:05;;;;;;;1.35;1.25;;;22.40;55.00;;;;;;5034512;28;20037;-76
2023/04/21 14:52:31;;;;;;;4.43;1.65;;;22.40;55.00;;;;;;5039784;28;20486;-80
2023/04/21 14:54:57;;;;;;;3.00;1.85;;;22.40;55.70;;;;;;5032676;28;20035;-81
2023/04/21 14:57:22;;;;;;;1.52;1.17;;;22.40;55.30;;;;;;5045111;28;20036;-80
2023/04/21 14:59:52;;;;;;;2.67;1.65;;;22.40;55.80;;;;;;5039858;28;20376;-80
2023/04/21 15:02:19;;;;;;;2.33;1.50;;;22.40;56.30;;;;;;5036901;28;20386;-76
2023/04/21 15:04:44;;;;;;;2.42;1.73;;;22.40;56.50;;;;;;5047385;28;20471;-77
2023/04/21 15:07:10;;;;;;;1.90;1.45;;;22.30;56.10;;;;;;5053834;28;20132;-77
2023/04/21 15:09:37;;;;;;;2.00;1.80;;;22.30;55.60;;;;;;5036952;28;20067;-77
2023/04/21 15:12:04;;;;;;;2.47;1.60;;;22.30;55.40;;;;;;5046625;28;20025;-80
2023/04/21 15:14:29;;;;;;;2.33;1.60;;;22.30;56.10;;;;;;5014702;28;20029;-77
2023/04/21 15:16:55;;;;;;;2.15;1.70;;;22.30;56.40;;;;;;5014792;28;20049;-77
2023/04/21 15:19:21;;;;;;;3.40;1.77;;;22.30;56.70;;;;;;5014681;28;20105;-77
2023/04/21 15:21:47;;;;;;;3.42;1.90;;;22.30;56.70;;;;;;5014261;28;20030;-76
2023/04/21 15:24:13;;;;;;;3.70;1.92;;;22.30;57.30;;;;;;5033629;28;20030;-77
2023/04/21 15:26:38;;;;;;;2.40;1.88;;;22.30;58.00;;;;;;5033827;28;20108;-76
2023/04/21 15:29:04;;;;;;;2.90;2.08;;;22.30;58.50;;;;;;5033982;28;20037;-77
2023/04/21 15:31:30;;;;;;;2.28;1.88;;;22.30;59.30;;;;;;5034447;28;20022;-77
2023/04/21 15:33:56;;;;;;;2.30;1.85;;;22.30;59.30;;;;;;5015647;28;20049;-77
2023/04/21 15:36:22;;;;;;;2.70;2.00;;;22.30;60.00;;;;;;5020919;28;20052;-77
2023/04/21 15:38:48;;;;;;;3.13;2.17;;;22.30;60.80;;;;;;5013767;28;20399;-77
2023/04/21 15:41:15;;;;;;;3.20;2.33;;;22.30;61.10;;;;;;5013731;28;20026;-76
2023/04/21 15:43:40;;;;;;;2.55;1.92;;;22.20;62.00;;;;;;5013814;28;20041;-77
2023/04/21 15:46:11;;;;;;;4.40;2.08;;;22.10;61.20;;;;;;5031215;28;20091;-77
2023/04/21 15:48:39;;;;;;;2.22;1.60;;;22.10;60.90;;;;;;5015697;28;20037;-77
2023/04/21 15:51:05;;;;;;;2.55;2.08;;;22.00;60.50;;;;;;5033636;28;20027;-77
2023/04/21 15:53:32;;;;;;;2.40;2.05;;;21.90;60.80;;;;;;5033577;28;20482;-76
2023/04/21 15:55:58;;;;;;;3.05;1.95;;;21.90;61.30;;;;;;5031123;28;20031;-76
2023/04/21 15:58:24;;;;;;;4.45;2.17;;;21.90;61.60;;;;;;5032669;28;20035;-77
2023/04/21 16:00:50;;;;;;;4.43;2.00;;;21.90;61.40;;;;;;5034294;28;20124;-77
2023/04/21 16:03:15;;;;;;;2.65;2.10;;;21.90;60.90;;;;;;5034503;28;20026;-77
2023/04/21 16:05:41;;;;;;;3.15;1.88;;;21.80;60.40;;;;;;5031584;28;20031;-77
2023/04/21 16:08:07;;;;;;;6.53;2.08;;;21.80;60.40;;;;;;5034190;28;20492;-77
2023/04/21 16:10:33;;;;;;;3.40;1.90;;;21.80;59.80;;;;;;5033736;28;20021;-80
2023/04/21 16:12:59;;;;;;;3.53;1.75;;;21.70;59.50;;;;;;5033611;28;20030;-80
2023/04/21 16:15:25;;;;;;;3.08;1.80;;;21.70;59.40;;;;;;5025085;28;20096;-80
2023/04/21 16:17:51;;;;;;;6.63;1.88;;;21.60;59.00;;;;;;5012970;28;20092;-80
2023/04/21 16:20:16;;;;;;;3.22;1.77;;;21.60;59.00;;;;;;5013786;28;20049;-80
2023/04/21 16:22:42;;;;;;;4.43;2.00;;;21.50;59.00;;;;;;4996043;28;20488;-80
2023/04/21 16:25:11;;;;;;;6.68;1.90;;;21.50;58.80;;;;;;5022111;28;20033;-80
2023/04/21 16:27:37;;;;;;;2.30;1.63;;;21.50;58.40;;;;;;5032961;28;20033;-80
2023/04/21 16:30:03;;;;;;;5.82;1.77;;;21.40;57.60;;;;;;5033415;28;20017;-80
2023/04/21 16:32:30;;;;;;;5.72;1.70;;;21.40;57.50;;;;;;5033293;28;20033;-80
2023/04/21 16:34:55;;;;;;;3.38;2.15;;;21.40;57.60;;;;;;5032531;28;20067;-80
2023/04/21 16:37:22;;;;;;;3.85;2.50;;;21.30;58.30;;;;;;5032991;28;20041;-80
2023/04/21 16:39:48;;;;;;;6.47;2.38;;;21.40;58.10;;;;;;5033139;28;20021;-80
2023/04/21 16:42:13;;;;;;;7.80;1.85;;;21.30;58.00;;;;;;5033066;28;20397;-80
2023/04/21 16:44:39;;;;;;;3.55;1.88;;;21.20;58.40;;;;;;5029723;28;20461;-80
2023/04/21 16:47:05;;;;;;;4.00;1.90;;;21.20;58.50;;;;;;5013584;28;20026;-80
2023/04/21 16:49:31;;;;;;;5.07;2.28;;;21.20;59.40;;;;;;5013459;28;20340;-80
2023/04/21 16:51:56;;;;;;;9.88;2.33;;;21.20;59.40;;;;;;5013689;28;20109;-80
2023/04/21 16:54:22;;;;;;;9.90;2.13;;;21.20;59.00;;;;;;4998892;28;20033;-80
2023/04/21 16:56:48;;;;;;;3.10;1.85;;;21.10;59.30;;;;;;5013220;28;20064;-80
2023/04/21 16:59:17;;;;;;;4.65;2.22;;;21.10;59.60;;;;;;5040735;28;20060;-78
2023/04/21 17:01:43;;;;;;;8.13;1.90;;;21.00;59.60;;;;;;5052172;28;20017;-80
2023/04/21 17:04:12;;;;;;;4.93;1.70;;;21.00;59.60;;;;;;5048539;28;20326;-80
2023/04/21 17:06:38;;;;;;;4.28;2.15;;;21.00;59.70;;;;;;5031279;28;20018;-81
2023/04/21 17:09:04;;;;;;;2.50;1.63;;;21.00;60.10;;;;;;5018024;28;20045;-81
2023/04/21 17:11:31;;;;;;;4.03;2.20;;;21.00;59.90;;;;;;5053734;28;20029;-81
2023/04/21 17:13:57;;;;;;;3.38;1.92;;;20.90;59.50;;;;;;5017533;28;20045;-77
2023/04/21 17:16:22;;;;;;;3.30;1.77;;;20.90;59.50;;;;;;5009866;28;20041;-76
2023/04/21 17:18:48;;;;;;;2.00;1.75;;;20.90;59.40;;;;;;5027263;28;20033;-76
2023/04/21 17:21:14;;;;;;;3.22;1.85;;;20.80;59.30;;;;;;5013913;28;20037;-77
2023/04/21 17:23:40;;;;;;;2.35;1.33;;;20.80;59.20;;;;;;5033352;28;20025;-77
2023/04/21 17:26:06;;;;;;;6.25;1.90;;;20.70;59.20;;;;;;5035310;28;20029;-77
2023/04/21 17:28:31;;;;;;;2.35;1.70;;;20.70;59.20;;;;;;5038900;28;20466;-77
2023/04/21 17:30:57;;;;;;;1.90;1.42;;;20.70;58.90;;;;;;5021245;28;20122;-77
2023/04/21 17:33:23;;;;;;;1.92;1.48;;;20.70;59.00;;;;;;5010674;28;20111;-77
2023/04/21 17:35:48;;;;;;;4.90;1.80;;;20.60;59.30;;;;;;5031008;28;20038;-77